sensor_id;sensor_type;location;lat;lon;timestamp;P1;durP1;ratioP1;P2;durP2;ratioP2
51957;SDS011;41120;51.820;20.804;2022-11-15T00:01:14;77.60;;;30.33;;
51957;SDS011;41120;51.820;20.804;2022-11-15T00:03:44;80.60;;;31.23;;
51957;SDS011;41120;51.820;20.804;2022-11-15T00:06:11;70.38;;;27.80;;
51957;SDS011;41120;51.820;20.804;2022-11-15T00:08:37;73.95;;;29.52;;
51957;SDS011;41120;51.820;20.804;2022-11-15T00:11:04;85.03;;;29.43;;
51957;SDS011;41120;51.820;20.804;2022-11-15T00:13:30;83.03;;;31.80;;
51957;SDS011;41120;51.820;20.804;2022-11-15T00:15:57;87.63;;;32.88;;
51957;SDS011;41120;51.820;20.804;2022-11-15T00:18:25;81.10;;;30.55;;
51957;SDS011;41120;51.820;20.804;2022-11-15T00:20:51;88.75;;;31.95;;
51957;SDS011;41120;51.820;20.804;2022-11-15T00:23:17;81.00;;;33.20;;
51957;SDS011;41120;51.820;20.804;2022-11-15T00:25:43;85.93;;;32.83;;
51957;SDS011;41120;51.820;20.804;2022-11-15T00:28:09;85.23;;;34.00;;
51957;SDS011;41120;51.820;20.804;2022-11-15T00:30:35;85.57;;;32.50;;
51957;SDS011;41120;51.820;20.804;2022-11-15T00:33:05;84.00;;;32.50;;
51957;SDS011;41120;51.820;20.804;2022-11-15T00:35:31;82.43;;;31.15;;
51957;SDS011;41120;51.820;20.804;2022-11-15T00:38:02;81.32;;;32.03;;
51957;SDS011;41120;51.820;20.804;2022-11-15T00:40:28;86.57;;;31.67;;
51957;SDS011;41120;51.820;20.804;2022-11-15T00:42:54;89.75;;;31.42;;
51957;SDS011;41120;51.820;20.804;2022-11-15T00:45:20;85.33;;;30.70;;
51957;SDS011;41120;51.820;20.804;2022-11-15T00:47:46;90.15;;;32.13;;
51957;SDS011;41120;51.820;20.804;2022-11-15T00:50:12;84.57;;;30.83;;
51957;SDS011;41120;51.820;20.804;2022-11-15T00:52:38;94.40;;;31.70;;
51957;SDS011;41120;51.820;20.804;2022-11-15T00:55:04;93.90;;;32.67;;
51957;SDS011;41120;51.820;20.804;2022-11-15T00:57:30;91.82;;;32.65;;
51957;SDS011;41120;51.820;20.804;2022-11-15T00:59:56;90.30;;;30.50;;
51957;SDS011;41120;51.820;20.804;2022-11-15T01:02:22;90.37;;;32.10;;
51957;SDS011;41120;51.820;20.804;2022-11-15T01:04:48;100.07;;;32.97;;
51957;SDS011;41120;51.820;20.804;2022-11-15T01:07:14;98.40;;;31.97;;
51957;SDS011;41120;51.820;20.804;2022-11-15T01:09:40;107.15;;;33.28;;
51957;SDS011;41120;51.820;20.804;2022-11-15T01:12:06;100.97;;;34.20;;
51957;SDS011;41120;51.820;20.804;2022-11-15T01:14:32;111.63;;;33.13;;
51957;SDS011;41120;51.820;20.804;2022-11-15T01:16:58;102.77;;;32.93;;
51957;SDS011;41120;51.820;20.804;2022-11-15T01:19:23;99.93;;;32.03;;
51957;SDS011;41120;51.820;20.804;2022-11-15T01:21:50;132.95;;;33.45;;
51957;SDS011;41120;51.820;20.804;2022-11-15T01:24:16;97.68;;;31.40;;
51957;SDS011;41120;51.820;20.804;2022-11-15T01:26:43;119.80;;;33.85;;
51957;SDS011;41120;51.820;20.804;2022-11-15T01:29:08;103.80;;;31.90;;
51957;SDS011;41120;51.820;20.804;2022-11-15T01:31:34;109.88;;;34.47;;
51957;SDS011;41120;51.820;20.804;2022-11-15T01:34:00;115.23;;;32.87;;
51957;SDS011;41120;51.820;20.804;2022-11-15T01:36:26;110.18;;;31.40;;
51957;SDS011;41120;51.820;20.804;2022-11-15T01:38:53;109.73;;;33.30;;
51957;SDS011;41120;51.820;20.804;2022-11-15T01:41:22;107.15;;;32.33;;
51957;SDS011;41120;51.820;20.804;2022-11-15T01:43:54;112.47;;;32.70;;
51957;SDS011;41120;51.820;20.804;2022-11-15T01:48:51;135.68;;;42.35;;
51957;SDS011;41120;51.820;20.804;2022-11-15T01:51:20;101.63;;;31.00;;
51957;SDS011;41120;51.820;20.804;2022-11-15T01:53:49;117.15;;;31.67;;
51957;SDS011;41120;51.820;20.804;2022-11-15T01:56:21;121.10;;;29.83;;
51957;SDS011;41120;51.820;20.804;2022-11-15T01:58:50;124.38;;;30.58;;
51957;SDS011;41120;51.820;20.804;2022-11-15T02:01:17;156.23;;;32.13;;
51957;SDS011;41120;51.820;20.804;2022-11-15T02:03:51;125.80;;;30.33;;
51957;SDS011;41120;51.820;20.804;2022-11-15T02:06:22;150.40;;;31.67;;
51957;SDS011;41120;51.820;20.804;2022-11-15T02:08:48;128.07;;;30.40;;
51957;SDS011;41120;51.820;20.804;2022-11-15T02:11:15;223.60;;;36.53;;
51957;SDS011;41120;51.820;20.804;2022-11-15T02:13:41;168.83;;;32.33;;
51957;SDS011;41120;51.820;20.804;2022-11-15T02:18:57;165.60;;;30.55;;
51957;SDS011;41120;51.820;20.804;2022-11-15T02:21:57;154.15;;;30.45;;
51957;SDS011;41120;51.820;20.804;2022-11-15T02:35:43;197.68;;;31.52;;
51957;SDS011;41120;51.820;20.804;2022-11-15T02:41:34;216.40;;;33.53;;
51957;SDS011;41120;51.820;20.804;2022-11-15T02:45:03;186.15;;;31.58;;
51957;SDS011;41120;51.820;20.804;2022-11-15T02:47:34;274.90;;;33.15;;
51957;SDS011;41120;51.820;20.804;2022-11-15T02:50:09;202.50;;;33.60;;
51957;SDS011;41120;51.820;20.804;2022-11-15T02:52:37;205.60;;;34.33;;
51957;SDS011;41120;51.820;20.804;2022-11-15T02:55:03;210.80;;;34.78;;
51957;SDS011;41120;51.820;20.804;2022-11-15T03:00:19;220.63;;;35.55;;
51957;SDS011;41120;51.820;20.804;2022-11-15T03:08:26;185.10;;;34.25;;
51957;SDS011;41120;51.820;20.804;2022-11-15T03:13:58;192.38;;;30.83;;
51957;SDS011;41120;51.820;20.804;2022-11-15T03:16:37;232.90;;;28.13;;
51957;SDS011;41120;51.820;20.804;2022-11-15T03:19:16;212.15;;;30.80;;
51957;SDS011;41120;51.820;20.804;2022-11-15T03:21:48;215.10;;;30.27;;
51957;SDS011;41120;51.820;20.804;2022-11-15T03:24:16;248.18;;;33.85;;
51957;SDS011;41120;51.820;20.804;2022-11-15T03:26:45;229.68;;;30.33;;
51957;SDS011;41120;51.820;20.804;2022-11-15T03:29:14;238.55;;;29.27;;
51957;SDS011;41120;51.820;20.804;2022-11-15T03:31:46;209.00;;;30.63;;
51957;SDS011;41120;51.820;20.804;2022-11-15T03:36:45;202.00;;;26.58;;
51957;SDS011;41120;51.820;20.804;2022-11-15T03:39:12;232.70;;;27.73;;
51957;SDS011;41120;51.820;20.804;2022-11-15T03:47:59;187.65;;;26.70;;
51957;SDS011;41120;51.820;20.804;2022-11-15T03:56:40;236.18;;;27.08;;
51957;SDS011;41120;51.820;20.804;2022-11-15T03:59:11;204.60;;;25.45;;
51957;SDS011;41120;51.820;20.804;2022-11-15T04:01:56;251.00;;;26.75;;
51957;SDS011;41120;51.820;20.804;2022-11-15T04:18:59;273.02;;;27.92;;
51957;SDS011;41120;51.820;20.804;2022-11-15T04:21:57;259.67;;;28.13;;
51957;SDS011;41120;51.820;20.804;2022-11-15T04:24:42;308.02;;;28.55;;
51957;SDS011;41120;51.820;20.804;2022-11-15T04:33:21;401.17;;;34.90;;
51957;SDS011;41120;51.820;20.804;2022-11-15T04:35:53;338.80;;;30.73;;
51957;SDS011;41120;51.820;20.804;2022-11-15T04:38:46;290.38;;;28.88;;
51957;SDS011;41120;51.820;20.804;2022-11-15T04:41:14;252.32;;;27.98;;
51957;SDS011;41120;51.820;20.804;2022-11-15T04:43:42;297.35;;;27.83;;
51957;SDS011;41120;51.820;20.804;2022-11-15T04:46:10;366.02;;;35.63;;
51957;SDS011;41120;51.820;20.804;2022-11-15T04:48:36;287.73;;;29.35;;
51957;SDS011;41120;51.820;20.804;2022-11-15T04:53:53;208.48;;;25.80;;
51957;SDS011;41120;51.820;20.804;2022-11-15T04:59:00;263.63;;;27.63;;
51957;SDS011;41120;51.820;20.804;2022-11-15T05:07:38;178.38;;;23.65;;
51957;SDS011;41120;51.820;20.804;2022-11-15T05:13:13;236.57;;;24.70;;
51957;SDS011;41120;51.820;20.804;2022-11-15T05:15:43;261.27;;;31.30;;
51957;SDS011;41120;51.820;20.804;2022-11-15T05:21:13;224.82;;;35.13;;
51957;SDS011;41120;51.820;20.804;2022-11-15T05:23:58;201.02;;;24.73;;
51957;SDS011;41120;51.820;20.804;2022-11-15T05:26:40;141.77;;;20.50;;
51957;SDS011;41120;51.820;20.804;2022-11-15T05:29:14;178.45;;;22.35;;
51957;SDS011;41120;51.820;20.804;2022-11-15T05:31:58;206.73;;;24.98;;
51957;SDS011;41120;51.820;20.804;2022-11-15T05:37:51;198.43;;;23.75;;
51957;SDS011;41120;51.820;20.804;2022-11-15T05:43:29;161.00;;;24.52;;
51957;SDS011;41120;51.820;20.804;2022-11-15T05:45:59;246.73;;;27.85;;
51957;SDS011;41120;51.820;20.804;2022-11-15T05:48:28;250.50;;;26.80;;
51957;SDS011;41120;51.820;20.804;2022-11-15T05:50:58;227.02;;;24.83;;
51957;SDS011;41120;51.820;20.804;2022-11-15T05:58:40;252.82;;;37.13;;
51957;SDS011;41120;51.820;20.804;2022-11-15T06:01:07;191.30;;;28.15;;
51957;SDS011;41120;51.820;20.804;2022-11-15T06:03:45;154.57;;;23.75;;
51957;SDS011;41120;51.820;20.804;2022-11-15T06:06:29;176.85;;;27.60;;
51957;SDS011;41120;51.820;20.804;2022-11-15T06:08:55;199.50;;;26.50;;
51957;SDS011;41120;51.820;20.804;2022-11-15T06:11:22;212.88;;;27.88;;
51957;SDS011;41120;51.820;20.804;2022-11-15T06:16:28;213.98;;;23.67;;
51957;SDS011;41120;51.820;20.804;2022-11-15T06:21:42;115.50;;;23.52;;
51957;SDS011;41120;51.820;20.804;2022-11-15T06:24:08;186.47;;;25.83;;
51957;SDS011;41120;51.820;20.804;2022-11-15T06:42:00;112.28;;;23.10;;
51957;SDS011;41120;51.820;20.804;2022-11-15T06:49:48;150.93;;;24.48;;
51957;SDS011;41120;51.820;20.804;2022-11-15T06:52:20;151.85;;;23.55;;
51957;SDS011;41120;51.820;20.804;2022-11-15T06:54:48;115.18;;;24.23;;
51957;SDS011;41120;51.820;20.804;2022-11-15T06:57:13;133.00;;;22.07;;
51957;SDS011;41120;51.820;20.804;2022-11-15T06:59:40;141.45;;;22.70;;
51957;SDS011;41120;51.820;20.804;2022-11-15T07:02:06;131.45;;;23.23;;
51957;SDS011;41120;51.820;20.804;2022-11-15T07:04:37;122.22;;;22.20;;
51957;SDS011;41120;51.820;20.804;2022-11-15T07:10:26;120.68;;;29.75;;
51957;SDS011;41120;51.820;20.804;2022-11-15T07:12:55;97.65;;;22.52;;
51957;SDS011;41120;51.820;20.804;2022-11-15T07:21:33;113.45;;;26.90;;
51957;SDS011;41120;51.820;20.804;2022-11-15T07:24:00;100.22;;;24.40;;
51957;SDS011;41120;51.820;20.804;2022-11-15T07:29:28;97.80;;;21.92;;
51957;SDS011;41120;51.820;20.804;2022-11-15T07:31:54;86.47;;;20.73;;
51957;SDS011;41120;51.820;20.804;2022-11-15T07:36:50;68.05;;;17.48;;
51957;SDS011;41120;51.820;20.804;2022-11-15T07:39:17;85.72;;;18.00;;
51957;SDS011;41120;51.820;20.804;2022-11-15T07:41:45;63.55;;;19.05;;
51957;SDS011;41120;51.820;20.804;2022-11-15T07:44:18;71.07;;;19.05;;
51957;SDS011;41120;51.820;20.804;2022-11-15T07:47:00;75.43;;;20.48;;
51957;SDS011;41120;51.820;20.804;2022-11-15T07:52:29;75.47;;;21.10;;
51957;SDS011;41120;51.820;20.804;2022-11-15T07:57:48;78.28;;;21.15;;
51957;SDS011;41120;51.820;20.804;2022-11-15T08:03:42;87.80;;;22.42;;
51957;SDS011;41120;51.820;20.804;2022-11-15T08:11:42;117.60;;;21.38;;
51957;SDS011;41120;51.820;20.804;2022-11-15T08:14:20;63.72;;;18.90;;
51957;SDS011;41120;51.820;20.804;2022-11-15T08:16:47;70.20;;;19.20;;
51957;SDS011;41120;51.820;20.804;2022-11-15T08:19:14;69.95;;;18.75;;
51957;SDS011;41120;51.820;20.804;2022-11-15T08:21:40;62.85;;;18.35;;
51957;SDS011;41120;51.820;20.804;2022-11-15T08:24:08;62.63;;;18.02;;
51957;SDS011;41120;51.820;20.804;2022-11-15T08:26:35;70.43;;;19.10;;
51957;SDS011;41120;51.820;20.804;2022-11-15T08:29:01;67.03;;;19.48;;
51957;SDS011;41120;51.820;20.804;2022-11-15T08:31:28;72.85;;;19.48;;
51957;SDS011;41120;51.820;20.804;2022-11-15T08:33:54;68.85;;;19.35;;
51957;SDS011;41120;51.820;20.804;2022-11-15T08:36:28;63.73;;;19.33;;
51957;SDS011;41120;51.820;20.804;2022-11-15T08:38:59;60.35;;;18.23;;
51957;SDS011;41120;51.820;20.804;2022-11-15T08:44:15;64.63;;;17.90;;
51957;SDS011;41120;51.820;20.804;2022-11-15T08:46:48;58.05;;;19.00;;
51957;SDS011;41120;51.820;20.804;2022-11-15T08:51:49;74.22;;;20.20;;
51957;SDS011;41120;51.820;20.804;2022-11-15T08:54:17;66.50;;;19.10;;
51957;SDS011;41120;51.820;20.804;2022-11-15T08:56:52;67.20;;;18.37;;
51957;SDS011;41120;51.820;20.804;2022-11-15T08:59:20;68.68;;;20.90;;
51957;SDS011;41120;51.820;20.804;2022-11-15T09:02:02;73.40;;;20.95;;
51957;SDS011;41120;51.820;20.804;2022-11-15T09:07:11;66.57;;;19.00;;
51957;SDS011;41120;51.820;20.804;2022-11-15T09:09:37;60.35;;;19.92;;
51957;SDS011;41120;51.820;20.804;2022-11-15T09:12:04;56.70;;;19.33;;
51957;SDS011;41120;51.820;20.804;2022-11-15T09:14:32;62.92;;;20.42;;
51957;SDS011;41120;51.820;20.804;2022-11-15T09:16:58;60.47;;;21.13;;
51957;SDS011;41120;51.820;20.804;2022-11-15T09:19:25;62.65;;;20.38;;
51957;SDS011;41120;51.820;20.804;2022-11-15T09:21:51;63.23;;;21.63;;
51957;SDS011;41120;51.820;20.804;2022-11-15T09:24:34;59.10;;;21.45;;
51957;SDS011;41120;51.820;20.804;2022-11-15T09:27:03;60.58;;;21.50;;
51957;SDS011;41120;51.820;20.804;2022-11-15T09:35:03;61.28;;;22.00;;
51957;SDS011;41120;51.820;20.804;2022-11-15T09:40:35;54.55;;;20.95;;
51957;SDS011;41120;51.820;20.804;2022-11-15T09:49:52;59.80;;;21.63;;
51957;SDS011;41120;51.820;20.804;2022-11-15T09:52:22;51.22;;;20.70;;
51957;SDS011;41120;51.820;20.804;2022-11-15T09:54:51;55.43;;;22.47;;
51957;SDS011;41120;51.820;20.804;2022-11-15T10:06:22;61.47;;;25.97;;
51957;SDS011;41120;51.820;20.804;2022-11-15T10:11:23;58.97;;;25.10;;
51957;SDS011;41120;51.820;20.804;2022-11-15T10:13:52;59.77;;;24.00;;
51957;SDS011;41120;51.820;20.804;2022-11-15T10:16:29;58.37;;;23.47;;
51957;SDS011;41120;51.820;20.804;2022-11-15T10:22:16;58.60;;;24.70;;
51957;SDS011;41120;51.820;20.804;2022-11-15T10:24:50;55.03;;;24.57;;
51957;SDS011;41120;51.820;20.804;2022-11-15T10:27:38;54.47;;;24.90;;
51957;SDS011;41120;51.820;20.804;2022-11-15T10:30:11;54.03;;;23.87;;
51957;SDS011;41120;51.820;20.804;2022-11-15T10:32:39;60.50;;;26.02;;
51957;SDS011;41120;51.820;20.804;2022-11-15T10:40:52;53.73;;;25.23;;
51957;SDS011;41120;51.820;20.804;2022-11-15T10:58:35;59.97;;;31.33;;
51957;SDS011;41120;51.820;20.804;2022-11-15T11:01:18;57.03;;;28.10;;
51957;SDS011;41120;51.820;20.804;2022-11-15T11:04:05;46.80;;;25.43;;
51957;SDS011;41120;51.820;20.804;2022-11-15T11:15:22;47.53;;;26.83;;
51957;SDS011;41120;51.820;20.804;2022-11-15T11:20:49;53.50;;;28.90;;
51957;SDS011;41120;51.820;20.804;2022-11-15T11:23:23;53.53;;;30.03;;
51957;SDS011;41120;51.820;20.804;2022-11-15T11:34:25;52.92;;;28.63;;
51957;SDS011;41120;51.820;20.804;2022-11-15T11:37:21;52.50;;;28.67;;
51957;SDS011;41120;51.820;20.804;2022-11-15T11:48:04;52.17;;;29.97;;
51957;SDS011;41120;51.820;20.804;2022-11-15T11:50:40;57.20;;;33.50;;
51957;SDS011;41120;51.820;20.804;2022-11-15T11:53:29;58.77;;;31.80;;
51957;SDS011;41120;51.820;20.804;2022-11-15T11:58:43;52.30;;;29.67;;
51957;SDS011;41120;51.820;20.804;2022-11-15T12:01:36;48.43;;;29.53;;
51957;SDS011;41120;51.820;20.804;2022-11-15T12:16:00;64.00;;;35.77;;
51957;SDS011;41120;51.820;20.804;2022-11-15T12:19:00;50.70;;;28.30;;
51957;SDS011;41120;51.820;20.804;2022-11-15T12:30:37;51.92;;;27.67;;
51957;SDS011;41120;51.820;20.804;2022-11-15T12:45:29;58.23;;;32.53;;
51957;SDS011;41120;51.820;20.804;2022-11-15T12:54:58;62.63;;;34.67;;
51957;SDS011;41120;51.820;20.804;2022-11-15T13:04:07;64.30;;;35.57;;
51957;SDS011;41120;51.820;20.804;2022-11-15T13:06:59;62.60;;;34.73;;
51957;SDS011;41120;51.820;20.804;2022-11-15T13:21:22;49.83;;;26.17;;
51957;SDS011;41120;51.820;20.804;2022-11-15T13:30:34;49.43;;;27.13;;
51957;SDS011;41120;51.820;20.804;2022-11-15T13:33:16;55.40;;;28.03;;
51957;SDS011;41120;51.820;20.804;2022-11-15T13:41:29;55.17;;;27.83;;
51957;SDS011;41120;51.820;20.804;2022-11-15T13:47:05;54.05;;;29.58;;
51957;SDS011;41120;51.820;20.804;2022-11-15T13:49:39;56.87;;;28.67;;
51957;SDS011;41120;51.820;20.804;2022-11-15T13:52:10;58.22;;;30.17;;
51957;SDS011;41120;51.820;20.804;2022-11-15T13:54:44;55.50;;;28.73;;
51957;SDS011;41120;51.820;20.804;2022-11-15T14:00:25;61.85;;;29.33;;
51957;SDS011;41120;51.820;20.804;2022-11-15T14:12:02;59.27;;;31.73;;
51957;SDS011;41120;51.820;20.804;2022-11-15T14:14:47;63.33;;;32.97;;
51957;SDS011;41120;51.820;20.804;2022-11-15T14:17:35;62.57;;;32.50;;
51957;SDS011;41120;51.820;20.804;2022-11-15T14:20:01;73.03;;;34.33;;
51957;SDS011;41120;51.820;20.804;2022-11-15T14:28:28;87.97;;;46.73;;
51957;SDS011;41120;51.820;20.804;2022-11-15T14:31:00;93.73;;;48.10;;
51957;SDS011;41120;51.820;20.804;2022-11-15T14:33:38;96.90;;;48.63;;
51957;SDS011;41120;51.820;20.804;2022-11-15T14:36:13;88.83;;;44.40;;
51957;SDS011;41120;51.820;20.804;2022-11-15T14:38:43;101.18;;;59.67;;
51957;SDS011;41120;51.820;20.804;2022-11-15T14:44:03;90.60;;;46.00;;
51957;SDS011;41120;51.820;20.804;2022-11-15T14:46:34;99.65;;;50.85;;
51957;SDS011;41120;51.820;20.804;2022-11-15T14:49:11;83.93;;;40.55;;
51957;SDS011;41120;51.820;20.804;2022-11-15T14:51:44;93.00;;;44.10;;
51957;SDS011;41120;51.820;20.804;2022-11-15T14:54:10;93.35;;;42.97;;
51957;SDS011;41120;51.820;20.804;2022-11-15T14:56:37;124.35;;;61.05;;
51957;SDS011;41120;51.820;20.804;2022-11-15T14:59:05;128.50;;;61.83;;
51957;SDS011;41120;51.820;20.804;2022-11-15T15:01:34;146.05;;;66.80;;
51957;SDS011;41120;51.820;20.804;2022-11-15T15:04:03;136.20;;;61.60;;
51957;SDS011;41120;51.820;20.804;2022-11-15T15:06:30;130.80;;;59.55;;
51957;SDS011;41120;51.820;20.804;2022-11-15T15:08:57;133.93;;;60.33;;
51957;SDS011;41120;51.820;20.804;2022-11-15T15:14:14;131.73;;;56.33;;
51957;SDS011;41120;51.820;20.804;2022-11-15T15:16:55;119.27;;;49.63;;
51957;SDS011;41120;51.820;20.804;2022-11-15T15:19:21;97.80;;;41.35;;
51957;SDS011;41120;51.820;20.804;2022-11-15T15:27:09;141.23;;;54.60;;
51957;SDS011;41120;51.820;20.804;2022-11-15T15:29:36;133.88;;;58.53;;
51957;SDS011;41120;51.820;20.804;2022-11-15T15:32:03;135.27;;;55.58;;
51957;SDS011;41120;51.820;20.804;2022-11-15T15:34:30;136.38;;;59.03;;
51957;SDS011;41120;51.820;20.804;2022-11-15T15:39:51;112.43;;;48.15;;
51957;SDS011;41120;51.820;20.804;2022-11-15T15:42:18;117.32;;;48.13;;
51957;SDS011;41120;51.820;20.804;2022-11-15T15:44:46;114.65;;;49.25;;
51957;SDS011;41120;51.820;20.804;2022-11-15T15:50:00;123.22;;;50.33;;
51957;SDS011;41120;51.820;20.804;2022-11-15T15:52:43;121.35;;;49.50;;
51957;SDS011;41120;51.820;20.804;2022-11-15T15:58:05;113.25;;;46.00;;
51957;SDS011;41120;51.820;20.804;2022-11-15T16:06:38;123.50;;;48.90;;
51957;SDS011;41120;51.820;20.804;2022-11-15T16:09:13;117.22;;;47.65;;
51957;SDS011;41120;51.820;20.804;2022-11-15T16:11:41;114.55;;;47.30;;
51957;SDS011;41120;51.820;20.804;2022-11-15T16:14:09;132.48;;;50.83;;
51957;SDS011;41120;51.820;20.804;2022-11-15T16:16:36;123.32;;;49.50;;
51957;SDS011;41120;51.820;20.804;2022-11-15T16:19:03;133.38;;;50.30;;
51957;SDS011;41120;51.820;20.804;2022-11-15T16:21:30;130.35;;;50.28;;
51957;SDS011;41120;51.820;20.804;2022-11-15T16:26:57;133.52;;;49.03;;
51957;SDS011;41120;51.820;20.804;2022-11-15T16:29:41;142.80;;;51.25;;
51957;SDS011;41120;51.820;20.804;2022-11-15T16:42:50;126.15;;;50.13;;
51957;SDS011;41120;51.820;20.804;2022-11-15T16:45:16;118.33;;;50.53;;
51957;SDS011;41120;51.820;20.804;2022-11-15T16:47:43;112.80;;;45.28;;
51957;SDS011;41120;51.820;20.804;2022-11-15T16:53:13;113.40;;;43.20;;
51957;SDS011;41120;51.820;20.804;2022-11-15T16:59:00;134.52;;;47.15;;
51957;SDS011;41120;51.820;20.804;2022-11-15T17:01:31;117.67;;;42.07;;
51957;SDS011;41120;51.820;20.804;2022-11-15T17:04:04;121.15;;;42.53;;
51957;SDS011;41120;51.820;20.804;2022-11-15T17:39:14;153.10;;;48.10;;
51957;SDS011;41120;51.820;20.804;2022-11-15T17:44:36;144.80;;;44.28;;
51957;SDS011;41120;51.820;20.804;2022-11-15T17:47:13;136.80;;;42.55;;
51957;SDS011;41120;51.820;20.804;2022-11-15T17:58:39;147.25;;;43.88;;
51957;SDS011;41120;51.820;20.804;2022-11-15T18:17:14;137.00;;;45.03;;
51957;SDS011;41120;51.820;20.804;2022-11-15T18:32:15;118.00;;;36.20;;
51957;SDS011;41120;51.820;20.804;2022-11-15T18:34:42;119.35;;;36.83;;
51957;SDS011;41120;51.820;20.804;2022-11-15T18:37:19;112.60;;;37.28;;
51957;SDS011;41120;51.820;20.804;2022-11-15T18:40:03;115.75;;;37.08;;
51957;SDS011;41120;51.820;20.804;2022-11-15T18:42:29;126.93;;;39.55;;
51957;SDS011;41120;51.820;20.804;2022-11-15T18:44:57;124.53;;;40.47;;
51957;SDS011;41120;51.820;20.804;2022-11-15T18:47:23;129.68;;;41.25;;
51957;SDS011;41120;51.820;20.804;2022-11-15T18:49:50;154.17;;;45.43;;
51957;SDS011;41120;51.820;20.804;2022-11-15T18:52:20;155.98;;;47.00;;
51957;SDS011;41120;51.820;20.804;2022-11-15T18:54:47;140.23;;;42.25;;
51957;SDS011;41120;51.820;20.804;2022-11-15T18:57:13;147.85;;;44.30;;
51957;SDS011;41120;51.820;20.804;2022-11-15T18:59:39;147.40;;;47.47;;
51957;SDS011;41120;51.820;20.804;2022-11-15T19:02:05;152.85;;;50.03;;
51957;SDS011;41120;51.820;20.804;2022-11-15T19:04:34;136.90;;;43.90;;
51957;SDS011;41120;51.820;20.804;2022-11-15T19:07:00;134.13;;;41.80;;
51957;SDS011;41120;51.820;20.804;2022-11-15T19:09:26;131.30;;;41.07;;
51957;SDS011;41120;51.820;20.804;2022-11-15T19:11:58;131.30;;;38.15;;
51957;SDS011;41120;51.820;20.804;2022-11-15T19:14:24;132.98;;;43.80;;
51957;SDS011;41120;51.820;20.804;2022-11-15T19:16:51;138.18;;;42.03;;
51957;SDS011;41120;51.820;20.804;2022-11-15T19:19:18;128.40;;;39.43;;
51957;SDS011;41120;51.820;20.804;2022-11-15T19:21:49;123.93;;;39.80;;
51957;SDS011;41120;51.820;20.804;2022-11-15T19:24:16;132.43;;;43.58;;
51957;SDS011;41120;51.820;20.804;2022-11-15T19:26:42;126.70;;;41.17;;
51957;SDS011;41120;51.820;20.804;2022-11-15T19:29:09;100.38;;;31.08;;
51957;SDS011;41120;51.820;20.804;2022-11-15T19:31:36;111.53;;;37.80;;
51957;SDS011;41120;51.820;20.804;2022-11-15T19:34:02;115.13;;;39.10;;
51957;SDS011;41120;51.820;20.804;2022-11-15T19:36:31;109.20;;;35.75;;
51957;SDS011;41120;51.820;20.804;2022-11-15T19:39:00;125.00;;;43.58;;
51957;SDS011;41120;51.820;20.804;2022-11-15T19:41:33;118.78;;;38.08;;
51957;SDS011;41120;51.820;20.804;2022-11-15T19:43:59;104.78;;;35.40;;
51957;SDS011;41120;51.820;20.804;2022-11-15T19:46:25;106.20;;;36.30;;
51957;SDS011;41120;51.820;20.804;2022-11-15T19:48:51;96.90;;;32.97;;
51957;SDS011;41120;51.820;20.804;2022-11-15T19:51:19;106.25;;;35.53;;
51957;SDS011;41120;51.820;20.804;2022-11-15T19:53:49;108.13;;;37.72;;
51957;SDS011;41120;51.820;20.804;2022-11-15T19:56:17;109.63;;;37.95;;
51957;SDS011;41120;51.820;20.804;2022-11-15T19:58:44;120.28;;;38.92;;
51957;SDS011;41120;51.820;20.804;2022-11-15T20:01:15;127.80;;;41.10;;
51957;SDS011;41120;51.820;20.804;2022-11-15T20:03:44;123.95;;;40.97;;
51957;SDS011;41120;51.820;20.804;2022-11-15T20:06:12;130.05;;;41.13;;
51957;SDS011;41120;51.820;20.804;2022-11-15T20:08:41;129.95;;;39.42;;
51957;SDS011;41120;51.820;20.804;2022-11-15T20:11:08;135.48;;;39.35;;
51957;SDS011;41120;51.820;20.804;2022-11-15T20:13:35;136.00;;;40.08;;
51957;SDS011;41120;51.820;20.804;2022-11-15T20:16:01;148.25;;;42.83;;
51957;SDS011;41120;51.820;20.804;2022-11-15T20:18:28;147.87;;;41.33;;
51957;SDS011;41120;51.820;20.804;2022-11-15T20:20:55;136.48;;;37.47;;
51957;SDS011;41120;51.820;20.804;2022-11-15T20:23:24;145.93;;;40.55;;
51957;SDS011;41120;51.820;20.804;2022-11-15T20:25:53;138.18;;;38.60;;
51957;SDS011;41120;51.820;20.804;2022-11-15T20:28:20;116.47;;;36.88;;
51957;SDS011;41120;51.820;20.804;2022-11-15T20:30:52;117.15;;;39.25;;
51957;SDS011;41120;51.820;20.804;2022-11-15T20:33:21;129.57;;;39.28;;
51957;SDS011;41120;51.820;20.804;2022-11-15T20:35:51;122.78;;;38.22;;
51957;SDS011;41120;51.820;20.804;2022-11-15T20:38:19;128.57;;;40.47;;
51957;SDS011;41120;51.820;20.804;2022-11-15T20:40:47;140.07;;;41.42;;
51957;SDS011;41120;51.820;20.804;2022-11-15T20:43:14;223.77;;;91.22;;
51957;SDS011;41120;51.820;20.804;2022-11-15T20:45:44;166.25;;;57.03;;
51957;SDS011;41120;51.820;20.804;2022-11-15T20:48:11;129.13;;;39.47;;
51957;SDS011;41120;51.820;20.804;2022-11-15T20:50:39;133.07;;;41.72;;
51957;SDS011;41120;51.820;20.804;2022-11-15T20:53:06;136.10;;;41.72;;
51957;SDS011;41120;51.820;20.804;2022-11-15T20:55:32;117.97;;;37.72;;
51957;SDS011;41120;51.820;20.804;2022-11-15T20:58:03;134.88;;;41.03;;
51957;SDS011;41120;51.820;20.804;2022-11-15T21:00:29;125.25;;;38.88;;
51957;SDS011;41120;51.820;20.804;2022-11-15T21:02:55;134.75;;;41.30;;
51957;SDS011;41120;51.820;20.804;2022-11-15T21:05:22;123.47;;;41.38;;
51957;SDS011;41120;51.820;20.804;2022-11-15T21:07:48;123.55;;;36.88;;
51957;SDS011;41120;51.820;20.804;2022-11-15T21:10:14;135.02;;;39.55;;
51957;SDS011;41120;51.820;20.804;2022-11-15T21:12:59;141.43;;;38.92;;
51957;SDS011;41120;51.820;20.804;2022-11-15T21:15:25;129.63;;;37.95;;
51957;SDS011;41120;51.820;20.804;2022-11-15T21:17:51;133.00;;;37.13;;
51957;SDS011;41120;51.820;20.804;2022-11-15T21:20:17;139.95;;;37.85;;
51957;SDS011;41120;51.820;20.804;2022-11-15T21:22:43;140.65;;;38.55;;
51957;SDS011;41120;51.820;20.804;2022-11-15T21:25:10;117.80;;;31.77;;
51957;SDS011;41120;51.820;20.804;2022-11-15T21:27:36;112.45;;;34.28;;
51957;SDS011;41120;51.820;20.804;2022-11-15T21:33:04;138.05;;;36.65;;
51957;SDS011;41120;51.820;20.804;2022-11-15T21:35:42;154.90;;;36.20;;
51957;SDS011;41120;51.820;20.804;2022-11-15T21:38:16;109.68;;;30.33;;
51957;SDS011;41120;51.820;20.804;2022-11-15T21:40:44;161.02;;;36.47;;
51957;SDS011;41120;51.820;20.804;2022-11-15T21:43:13;150.15;;;36.38;;
51957;SDS011;41120;51.820;20.804;2022-11-15T21:45:40;117.88;;;32.63;;
51957;SDS011;41120;51.820;20.804;2022-11-15T21:48:07;144.10;;;35.85;;
51957;SDS011;41120;51.820;20.804;2022-11-15T21:50:33;140.25;;;36.20;;
51957;SDS011;41120;51.820;20.804;2022-11-15T21:52:59;121.90;;;31.10;;
51957;SDS011;41120;51.820;20.804;2022-11-15T21:55:26;152.70;;;39.85;;